AAY2737 KPIT-KVPS
Flight info
| Callsign | AAY2737 |
|---|---|
| Flight time | 1h 52m |
| Altitude | 36000 |
| Route | AHTIY BURGS HVQ VXV MGMRY CORKY |
| Aircraft | A320/M-VGDW/C |
Departure
| Time | 2026-04-25 23:23 |
|---|---|
| Airport | Pittsburgh International Airport (KPIT) |
Arrival
| Time | 2026-04-26 01:15 |
|---|---|
| Airport | Destin-Fort Walton Beach Airport (KVPS) |
| Time | Latitude | Longitude | Altitude | Speed | Heading |
|---|---|---|---|---|---|
| 2026-04-25 23:05 | 40.49844 | -80.24114 | 1167 ft | 0 kts | 227° |
| 2026-04-25 23:15 | 40.49853 | -80.24102 | 1186 ft | 2 kts | 227° |
| 2026-04-25 23:15 | 40.49863 | -80.24084 | 1186 ft | 3 kts | 259° |
| 2026-04-25 23:15 | 40.49863 | -80.24061 | 1187 ft | 3 kts | 296° |
| 2026-04-25 23:15 | 40.49853 | -80.24042 | 1186 ft | 0 kts | 333° |
| 2026-04-25 23:19 | 40.49854 | -80.24043 | 1186 ft | 1 kts | 334° |
| 2026-04-25 23:19 | 40.49883 | -80.24037 | 1187 ft | 9 kts | 8° |
| 2026-04-25 23:19 | 40.49919 | -80.23965 | 1186 ft | 10 kts | 44° |
| 2026-04-25 23:19 | 40.49990 | -80.23958 | 1186 ft | 12 kts | 3° |
| 2026-04-25 23:20 | 40.50042 | -80.23899 | 1186 ft | 11 kts | 86° |
| 2026-04-25 23:20 | 40.50038 | -80.23802 | 1185 ft | 10 kts | 93° |
| 2026-04-25 23:20 | 40.50036 | -80.23705 | 1183 ft | 11 kts | 91° |
| 2026-04-25 23:20 | 40.50033 | -80.23596 | 1178 ft | 13 kts | 92° |
| 2026-04-25 23:21 | 40.50030 | -80.23480 | 1178 ft | 12 kts | 92° |
| 2026-04-25 23:21 | 40.50032 | -80.23383 | 1179 ft | 9 kts | 68° |
| 2026-04-25 23:21 | 40.50088 | -80.23362 | 1177 ft | 11 kts | 3° |
| 2026-04-25 23:21 | 40.50138 | -80.23407 | 1177 ft | 10 kts | 273° |
| 2026-04-25 23:22 | 40.50139 | -80.23501 | 1179 ft | 14 kts | 271° |
| 2026-04-25 23:22 | 40.50153 | -80.23904 | 1187 ft | 77 kts | 273° |
| 2026-04-25 23:22 | 40.50183 | -80.24864 | 1194 ft | 132 kts | 272° |
| 2026-04-25 23:23 | 40.50261 | -80.27881 | 1832 ft | 178 kts | 274° |
| 2026-04-25 23:23 | 40.50315 | -80.29527 | 2633 ft | 179 kts | 273° |
| 2026-04-25 23:23 | 40.50353 | -80.31178 | 3233 ft | 187 kts | 273° |
| 2026-04-25 23:23 | 40.50392 | -80.32981 | 3507 ft | 209 kts | 273° |
| 2026-04-25 23:24 | 40.50437 | -80.35000 | 3819 ft | 233 kts | 272° |
| 2026-04-25 23:24 | 40.50484 | -80.37238 | 4313 ft | 254 kts | 271° |
| 2026-04-25 23:24 | 40.50125 | -80.39549 | 5112 ft | 265 kts | 246° |
| 2026-04-25 23:24 | 40.48961 | -80.41456 | 5974 ft | 275 kts | 218° |
| 2026-04-25 23:25 | 40.47178 | -80.42416 | 6812 ft | 285 kts | 188° |
| 2026-04-25 23:25 | 40.45176 | -80.42392 | 7631 ft | 290 kts | 178° |
| 2026-04-25 23:25 | 40.43147 | -80.42238 | 8451 ft | 294 kts | 178° |
| 2026-04-25 23:25 | 40.41785 | -80.42127 | 8996 ft | 297 kts | 178° |
| 2026-04-25 23:26 | 40.39004 | -80.41905 | 10059 ft | 303 kts | 178° |
| 2026-04-25 23:26 | 40.36872 | -80.41744 | 10462 ft | 321 kts | 178° |
| 2026-04-25 23:26 | 40.34561 | -80.41574 | 10769 ft | 342 kts | 178° |
| 2026-04-25 23:26 | 40.32160 | -80.41398 | 11398 ft | 349 kts | 177° |
| 2026-04-25 23:27 | 40.29711 | -80.41219 | 12111 ft | 354 kts | 177° |
| 2026-04-25 23:27 | 40.27222 | -80.41037 | 12828 ft | 359 kts | 177° |
| 2026-04-25 23:27 | 40.24711 | -80.40854 | 13527 ft | 364 kts | 176° |
| 2026-04-25 23:27 | 40.22168 | -80.40670 | 14162 ft | 368 kts | 177° |
| 2026-04-25 23:28 | 40.19585 | -80.40487 | 14772 ft | 372 kts | 177° |
| 2026-04-25 23:28 | 40.16985 | -80.40304 | 15380 ft | 376 kts | 177° |
| 2026-04-25 23:28 | 40.14356 | -80.40120 | 15988 ft | 380 kts | 177° |
| 2026-04-25 23:28 | 40.11691 | -80.39931 | 16587 ft | 385 kts | 177° |
| 2026-04-25 23:29 | 40.09915 | -80.39802 | 16991 ft | 387 kts | 177° |
| 2026-04-25 23:29 | 40.07211 | -80.39603 | 17592 ft | 391 kts | 178° |
| 2026-04-25 23:29 | 40.04481 | -80.39403 | 18185 ft | 395 kts | 178° |
| 2026-04-25 23:29 | 40.01718 | -80.39204 | 18713 ft | 399 kts | 178° |
| 2026-04-25 23:30 | 39.98940 | -80.39007 | 19259 ft | 401 kts | 178° |
| 2026-04-25 23:30 | 39.95238 | -80.38842 | 19989 ft | 402 kts | 185° |
| 2026-04-25 23:30 | 39.92475 | -80.39338 | 20532 ft | 402 kts | 196° |
| 2026-04-25 23:30 | 39.90666 | -80.40048 | 20907 ft | 400 kts | 203° |
| 2026-04-25 23:31 | 39.88193 | -80.41592 | 21428 ft | 399 kts | 214° |
| 2026-04-25 23:31 | 39.85915 | -80.43644 | 21956 ft | 398 kts | 219° |
| 2026-04-25 23:31 | 39.83664 | -80.45766 | 22483 ft | 400 kts | 219° |
| 2026-04-25 23:31 | 39.81401 | -80.47885 | 23017 ft | 402 kts | 218° |
| 2026-04-25 23:32 | 39.79125 | -80.50007 | 23525 ft | 403 kts | 218° |
| 2026-04-25 23:32 | 39.76837 | -80.52136 | 23942 ft | 405 kts | 218° |
| 2026-04-25 23:32 | 39.74538 | -80.54270 | 24385 ft | 406 kts | 218° |
| 2026-04-25 23:32 | 39.72241 | -80.56405 | 24829 ft | 406 kts | 218° |
| 2026-04-25 23:33 | 39.69943 | -80.58545 | 25271 ft | 407 kts | 218° |
| 2026-04-25 23:33 | 39.67625 | -80.60681 | 25695 ft | 408 kts | 218° |
| 2026-04-25 23:33 | 39.65294 | -80.62789 | 26105 ft | 409 kts | 218° |
| 2026-04-25 23:33 | 39.62945 | -80.64885 | 26529 ft | 410 kts | 217° |
| 2026-04-25 23:34 | 39.60582 | -80.66981 | 26944 ft | 411 kts | 217° |
| 2026-04-25 23:34 | 39.58244 | -80.69055 | 27337 ft | 412 kts | 217° |
| 2026-04-25 23:34 | 39.55875 | -80.71160 | 27734 ft | 413 kts | 218° |
| 2026-04-25 23:34 | 39.53497 | -80.73275 | 28129 ft | 414 kts | 218° |
| 2026-04-25 23:35 | 39.51117 | -80.75396 | 28524 ft | 416 kts | 218° |
| 2026-04-25 23:35 | 39.48726 | -80.77533 | 28897 ft | 417 kts | 218° |
| 2026-04-25 23:35 | 39.46334 | -80.79670 | 29274 ft | 418 kts | 218° |
| 2026-04-25 23:35 | 39.43936 | -80.81811 | 29649 ft | 420 kts | 218° |
| 2026-04-25 23:36 | 39.41528 | -80.83958 | 29992 ft | 421 kts | 218° |
| 2026-04-25 23:36 | 39.39111 | -80.86111 | 30274 ft | 423 kts | 218° |
| 2026-04-25 23:36 | 39.36717 | -80.88237 | 30530 ft | 424 kts | 217° |
| 2026-04-25 23:36 | 39.34280 | -80.90397 | 30804 ft | 425 kts | 217° |
| 2026-04-25 23:37 | 39.31834 | -80.92562 | 31092 ft | 427 kts | 217° |
| 2026-04-25 23:37 | 39.29388 | -80.94727 | 31423 ft | 426 kts | 217° |
| 2026-04-25 23:37 | 39.26948 | -80.96886 | 31812 ft | 424 kts | 217° |
| 2026-04-25 23:37 | 39.24515 | -80.99036 | 32211 ft | 423 kts | 217° |
| 2026-04-25 23:38 | 39.22096 | -81.01176 | 32594 ft | 421 kts | 217° |
| 2026-04-25 23:38 | 39.19680 | -81.03312 | 32966 ft | 420 kts | 217° |
| 2026-04-25 23:38 | 39.17271 | -81.05439 | 33328 ft | 419 kts | 217° |
| 2026-04-25 23:38 | 39.14868 | -81.07557 | 33718 ft | 417 kts | 217° |
| 2026-04-25 23:39 | 39.12473 | -81.09666 | 34065 ft | 416 kts | 217° |
| 2026-04-25 23:39 | 39.10083 | -81.11764 | 34361 ft | 416 kts | 217° |
| 2026-04-25 23:39 | 39.07694 | -81.13862 | 34642 ft | 415 kts | 217° |
| 2026-04-25 23:39 | 39.05307 | -81.15961 | 34923 ft | 414 kts | 217° |
| 2026-04-25 23:40 | 39.02929 | -81.18050 | 35182 ft | 414 kts | 217° |
| 2026-04-25 23:40 | 39.00552 | -81.20135 | 35439 ft | 414 kts | 217° |
| 2026-04-25 23:40 | 38.98173 | -81.22222 | 35699 ft | 413 kts | 217° |
| 2026-04-25 23:40 | 38.95800 | -81.24301 | 35868 ft | 413 kts | 217° |
| 2026-04-25 23:41 | 38.93437 | -81.26364 | 35904 ft | 409 kts | 217° |
| 2026-04-25 23:41 | 38.88776 | -81.30433 | 35903 ft | 407 kts | 217° |
| 2026-04-25 23:42 | 38.84097 | -81.34518 | 35900 ft | 406 kts | 217° |
| 2026-04-25 23:42 | 38.79417 | -81.38597 | 35905 ft | 406 kts | 217° |
| 2026-04-25 23:43 | 38.74747 | -81.42666 | 35898 ft | 406 kts | 217° |
| 2026-04-25 23:43 | 38.70073 | -81.46725 | 35900 ft | 406 kts | 217° |
| 2026-04-25 23:44 | 38.65422 | -81.50750 | 35900 ft | 406 kts | 217° |
| 2026-04-25 23:44 | 38.60748 | -81.54798 | 35905 ft | 406 kts | 217° |
| 2026-04-25 23:45 | 38.56066 | -81.58839 | 35908 ft | 406 kts | 217° |
| 2026-04-25 23:45 | 38.51387 | -81.62877 | 35914 ft | 406 kts | 217° |
| 2026-04-25 23:46 | 38.46712 | -81.66903 | 35912 ft | 405 kts | 217° |
| 2026-04-25 23:46 | 38.42031 | -81.70928 | 35919 ft | 405 kts | 217° |
| 2026-04-25 23:47 | 38.37360 | -81.74935 | 35919 ft | 405 kts | 217° |
| 2026-04-25 23:47 | 38.32797 | -81.78872 | 35914 ft | 391 kts | 217° |
| 2026-04-25 23:48 | 38.28380 | -81.82871 | 35910 ft | 388 kts | 218° |
| 2026-04-25 23:48 | 38.24002 | -81.86884 | 35908 ft | 387 kts | 218° |
| 2026-04-25 23:49 | 38.19609 | -81.90865 | 35906 ft | 388 kts | 218° |
| 2026-04-25 23:49 | 38.15202 | -81.94825 | 35902 ft | 388 kts | 218° |
| 2026-04-25 23:50 | 38.10796 | -81.98782 | 35898 ft | 388 kts | 218° |
| 2026-04-25 23:50 | 38.06414 | -82.02707 | 35900 ft | 388 kts | 218° |
| 2026-04-25 23:51 | 38.01976 | -82.06682 | 35897 ft | 388 kts | 218° |
| 2026-04-25 23:51 | 37.97585 | -82.10612 | 35890 ft | 389 kts | 218° |
| 2026-04-25 23:52 | 37.93161 | -82.14559 | 35888 ft | 389 kts | 218° |
| 2026-04-25 23:52 | 37.88731 | -82.18503 | 35890 ft | 389 kts | 218° |
| 2026-04-25 23:53 | 37.84297 | -82.22446 | 35889 ft | 390 kts | 218° |
| 2026-04-25 23:53 | 37.79861 | -82.26392 | 35892 ft | 390 kts | 218° |
| 2026-04-25 23:54 | 37.75416 | -82.30337 | 35897 ft | 390 kts | 218° |
| 2026-04-25 23:54 | 37.70998 | -82.34252 | 35908 ft | 390 kts | 218° |
| 2026-04-25 23:55 | 37.66552 | -82.38191 | 35911 ft | 390 kts | 218° |
| 2026-04-25 23:55 | 37.62095 | -82.42126 | 35920 ft | 391 kts | 218° |
| 2026-04-25 23:56 | 37.57635 | -82.46055 | 35921 ft | 391 kts | 218° |
| 2026-04-25 23:56 | 37.53174 | -82.49989 | 35919 ft | 391 kts | 218° |
| 2026-04-25 23:57 | 37.48702 | -82.53915 | 35922 ft | 392 kts | 218° |
| 2026-04-25 23:57 | 37.44261 | -82.57815 | 35918 ft | 391 kts | 218° |
| 2026-04-25 23:58 | 37.39792 | -82.61734 | 35913 ft | 392 kts | 218° |
| 2026-04-25 23:58 | 37.35311 | -82.65660 | 35910 ft | 392 kts | 219° |
| 2026-04-25 23:59 | 37.30834 | -82.69577 | 35908 ft | 391 kts | 218° |
| 2026-04-25 23:59 | 37.26361 | -82.73480 | 35908 ft | 391 kts | 218° |
| 2026-04-26 00:00 | 37.24562 | -82.75049 | 35909 ft | 391 kts | 218° |
| 2026-04-26 00:00 | 37.20329 | -82.78743 | 35917 ft | 391 kts | 219° |
| 2026-04-26 00:01 | 37.15856 | -82.82636 | 35922 ft | 391 kts | 219° |
| 2026-04-26 00:01 | 37.11414 | -82.86499 | 35922 ft | 391 kts | 219° |
| 2026-04-26 00:02 | 37.06936 | -82.90387 | 35915 ft | 391 kts | 219° |
| 2026-04-26 00:02 | 37.02453 | -82.94264 | 35899 ft | 391 kts | 219° |
| 2026-04-26 00:03 | 36.97976 | -82.98129 | 35892 ft | 391 kts | 219° |
| 2026-04-26 00:03 | 36.93471 | -83.02028 | 35927 ft | 394 kts | 219° |
| 2026-04-26 00:04 | 36.88963 | -83.05918 | 35934 ft | 393 kts | 219° |
| 2026-04-26 00:04 | 36.84457 | -83.09802 | 35928 ft | 393 kts | 219° |
| 2026-04-26 00:05 | 36.79958 | -83.13668 | 35917 ft | 393 kts | 219° |
| 2026-04-26 00:05 | 36.75455 | -83.17526 | 35916 ft | 392 kts | 219° |
| 2026-04-26 00:06 | 36.70989 | -83.21361 | 35910 ft | 392 kts | 219° |
| 2026-04-26 00:06 | 36.66497 | -83.25207 | 35908 ft | 392 kts | 219° |
| 2026-04-26 00:07 | 36.62001 | -83.29054 | 35901 ft | 392 kts | 219° |
| 2026-04-26 00:07 | 36.57503 | -83.32893 | 35902 ft | 392 kts | 219° |
| 2026-04-26 00:08 | 36.53005 | -83.36732 | 35899 ft | 392 kts | 219° |
| 2026-04-26 00:08 | 36.48498 | -83.40567 | 35903 ft | 392 kts | 219° |
| 2026-04-26 00:09 | 36.43990 | -83.44395 | 35903 ft | 392 kts | 219° |
| 2026-04-26 00:09 | 36.39514 | -83.48189 | 35910 ft | 392 kts | 219° |
| 2026-04-26 00:10 | 36.34999 | -83.52021 | 35914 ft | 392 kts | 219° |
| 2026-04-26 00:10 | 36.30486 | -83.55839 | 35916 ft | 392 kts | 218° |
| 2026-04-26 00:11 | 36.25971 | -83.59654 | 35915 ft | 393 kts | 218° |
| 2026-04-26 00:11 | 36.21451 | -83.63470 | 35908 ft | 393 kts | 218° |
| 2026-04-26 00:12 | 36.16921 | -83.67290 | 35900 ft | 394 kts | 218° |
| 2026-04-26 00:12 | 36.12389 | -83.71106 | 35898 ft | 394 kts | 218° |
| 2026-04-26 00:13 | 36.07875 | -83.74902 | 35901 ft | 395 kts | 218° |
| 2026-04-26 00:13 | 36.03322 | -83.78730 | 35909 ft | 395 kts | 218° |
| 2026-04-26 00:14 | 35.98769 | -83.82551 | 35919 ft | 396 kts | 218° |
| 2026-04-26 00:14 | 35.94203 | -83.86362 | 35913 ft | 396 kts | 218° |
| 2026-04-26 00:15 | 35.89612 | -83.90141 | 35911 ft | 398 kts | 216° |
| 2026-04-26 00:15 | 35.84846 | -83.93564 | 35901 ft | 400 kts | 213° |
| 2026-04-26 00:16 | 35.79950 | -83.96827 | 35896 ft | 400 kts | 212° |
| 2026-04-26 00:16 | 35.75053 | -84.00129 | 35900 ft | 401 kts | 213° |
| 2026-04-26 00:17 | 35.70182 | -84.03475 | 35901 ft | 401 kts | 213° |
| 2026-04-26 00:17 | 35.65317 | -84.06844 | 35894 ft | 401 kts | 213° |
| 2026-04-26 00:18 | 35.61269 | -84.09641 | 35893 ft | 401 kts | 213° |
| 2026-04-26 00:18 | 35.56388 | -84.12990 | 35895 ft | 402 kts | 213° |
| 2026-04-26 00:19 | 35.50710 | -84.16869 | 35895 ft | 402 kts | 213° |
| 2026-04-26 00:19 | 35.46611 | -84.19670 | 35895 ft | 402 kts | 213° |
| 2026-04-26 00:20 | 35.41752 | -84.22997 | 35894 ft | 403 kts | 213° |
| 2026-04-26 00:20 | 35.36853 | -84.26344 | 35891 ft | 403 kts | 213° |
| 2026-04-26 00:21 | 35.31951 | -84.29692 | 35900 ft | 404 kts | 213° |
| 2026-04-26 00:21 | 35.27038 | -84.33038 | 35897 ft | 404 kts | 213° |
| 2026-04-26 00:22 | 35.22119 | -84.36372 | 35896 ft | 404 kts | 213° |
| 2026-04-26 00:22 | 35.17189 | -84.39721 | 35892 ft | 405 kts | 213° |
| 2026-04-26 00:23 | 35.12261 | -84.43066 | 35889 ft | 405 kts | 213° |
| 2026-04-26 00:23 | 35.07322 | -84.46403 | 35879 ft | 406 kts | 213° |
| 2026-04-26 00:24 | 35.02376 | -84.49745 | 35876 ft | 406 kts | 213° |
| 2026-04-26 00:24 | 34.97468 | -84.53066 | 35871 ft | 406 kts | 213° |
| 2026-04-26 00:25 | 34.92508 | -84.56411 | 35874 ft | 407 kts | 213° |
| 2026-04-26 00:25 | 34.87551 | -84.59745 | 35881 ft | 407 kts | 213° |
| 2026-04-26 00:26 | 34.82582 | -84.63079 | 35883 ft | 408 kts | 213° |
| 2026-04-26 00:26 | 34.77608 | -84.66413 | 35889 ft | 408 kts | 213° |
| 2026-04-26 00:27 | 34.72660 | -84.69732 | 35887 ft | 408 kts | 213° |
| 2026-04-26 00:27 | 34.67670 | -84.73079 | 35894 ft | 409 kts | 213° |
| 2026-04-26 00:28 | 34.62689 | -84.76419 | 35891 ft | 409 kts | 213° |
| 2026-04-26 00:28 | 34.57685 | -84.79757 | 35888 ft | 410 kts | 213° |
| 2026-04-26 00:29 | 34.52718 | -84.83065 | 35893 ft | 410 kts | 213° |
| 2026-04-26 00:29 | 34.47704 | -84.86401 | 35893 ft | 410 kts | 213° |
| 2026-04-26 00:30 | 34.42720 | -84.89716 | 35897 ft | 410 kts | 213° |
| 2026-04-26 00:30 | 34.37718 | -84.93040 | 35897 ft | 410 kts | 213° |
| 2026-04-26 00:31 | 34.32709 | -84.96359 | 35889 ft | 410 kts | 213° |
| 2026-04-26 00:31 | 34.27697 | -84.99676 | 35879 ft | 411 kts | 213° |
| 2026-04-26 00:32 | 34.22663 | -85.02998 | 35874 ft | 411 kts | 213° |
| 2026-04-26 00:32 | 34.15153 | -85.07952 | 35868 ft | 412 kts | 213° |
| 2026-04-26 00:33 | 34.10125 | -85.11271 | 35871 ft | 412 kts | 213° |
| 2026-04-26 00:33 | 34.05089 | -85.14585 | 35868 ft | 412 kts | 213° |
| 2026-04-26 00:34 | 34.00042 | -85.17903 | 35874 ft | 413 kts | 213° |
| 2026-04-26 00:34 | 33.95028 | -85.21198 | 35874 ft | 413 kts | 213° |
| 2026-04-26 00:35 | 33.89967 | -85.24519 | 35869 ft | 414 kts | 213° |
| 2026-04-26 00:35 | 33.84906 | -85.27832 | 35893 ft | 414 kts | 213° |
| 2026-04-26 00:36 | 33.79840 | -85.31143 | 35904 ft | 415 kts | 213° |
| 2026-04-26 00:36 | 33.74767 | -85.34454 | 35906 ft | 415 kts | 213° |
| 2026-04-26 00:37 | 33.69688 | -85.37763 | 35910 ft | 415 kts | 213° |
| 2026-04-26 00:37 | 33.64643 | -85.41048 | 35902 ft | 415 kts | 214° |
| 2026-04-26 00:38 | 33.59559 | -85.44358 | 35896 ft | 416 kts | 214° |
| 2026-04-26 00:38 | 33.54466 | -85.47661 | 35893 ft | 416 kts | 214° |
| 2026-04-26 00:39 | 33.49359 | -85.50965 | 35876 ft | 416 kts | 214° |
| 2026-04-26 00:39 | 33.44259 | -85.54266 | 35873 ft | 417 kts | 214° |
| 2026-04-26 00:40 | 33.39188 | -85.57554 | 35873 ft | 417 kts | 214° |
| 2026-04-26 00:40 | 33.34076 | -85.60859 | 35874 ft | 417 kts | 214° |
| 2026-04-26 00:41 | 33.28957 | -85.64153 | 35870 ft | 418 kts | 214° |
| 2026-04-26 00:41 | 33.23832 | -85.67451 | 35872 ft | 418 kts | 214° |
| 2026-04-26 00:42 | 33.18702 | -85.70747 | 35872 ft | 419 kts | 214° |
| 2026-04-26 00:42 | 33.13598 | -85.74023 | 35874 ft | 419 kts | 214° |
| 2026-04-26 00:43 | 33.08460 | -85.77323 | 35876 ft | 419 kts | 214° |
| 2026-04-26 00:43 | 33.03320 | -85.80617 | 35878 ft | 420 kts | 214° |
| 2026-04-26 00:44 | 32.98166 | -85.83911 | 35883 ft | 420 kts | 214° |
| 2026-04-26 00:44 | 32.93004 | -85.87205 | 35883 ft | 421 kts | 214° |
| 2026-04-26 00:45 | 32.87839 | -85.90508 | 35883 ft | 421 kts | 214° |
| 2026-04-26 00:45 | 32.82670 | -85.93807 | 35881 ft | 422 kts | 215° |
| 2026-04-26 00:46 | 32.77523 | -85.97082 | 35878 ft | 422 kts | 215° |
| 2026-04-26 00:46 | 32.72332 | -86.00372 | 35872 ft | 423 kts | 215° |
| 2026-04-26 00:47 | 32.67140 | -86.03661 | 35869 ft | 423 kts | 215° |
| 2026-04-26 00:47 | 32.61943 | -86.06958 | 35869 ft | 423 kts | 215° |
| 2026-04-26 00:48 | 32.56740 | -86.10256 | 35856 ft | 424 kts | 215° |
| 2026-04-26 00:48 | 32.51529 | -86.13544 | 35844 ft | 424 kts | 216° |
| 2026-04-26 00:49 | 32.46342 | -86.16819 | 35405 ft | 428 kts | 216° |
| 2026-04-26 00:49 | 32.43680 | -86.18510 | 34482 ft | 436 kts | 216° |
| 2026-04-26 00:49 | 32.41018 | -86.20192 | 33996 ft | 431 kts | 216° |
| 2026-04-26 00:50 | 32.38372 | -86.21854 | 33425 ft | 428 kts | 216° |
| 2026-04-26 00:50 | 32.35755 | -86.23494 | 32916 ft | 423 kts | 215° |
| 2026-04-26 00:50 | 32.33166 | -86.25115 | 32415 ft | 419 kts | 215° |
| 2026-04-26 00:50 | 32.30605 | -86.26722 | 31956 ft | 415 kts | 215° |
| 2026-04-26 00:51 | 32.28068 | -86.28313 | 31464 ft | 411 kts | 214° |
| 2026-04-26 00:51 | 32.25556 | -86.29891 | 30987 ft | 407 kts | 214° |
| 2026-04-26 00:51 | 32.23000 | -86.31328 | 30509 ft | 409 kts | 206° |
| 2026-04-26 00:51 | 32.20248 | -86.32234 | 30047 ft | 413 kts | 195° |
| 2026-04-26 00:52 | 32.17389 | -86.32667 | 29523 ft | 413 kts | 192° |
| 2026-04-26 00:52 | 32.14591 | -86.33047 | 29078 ft | 407 kts | 192° |
| 2026-04-26 00:52 | 32.11792 | -86.33425 | 28625 ft | 402 kts | 192° |
| 2026-04-26 00:52 | 32.09021 | -86.33803 | 28180 ft | 397 kts | 192° |
| 2026-04-26 00:53 | 32.06291 | -86.34180 | 27742 ft | 393 kts | 192° |
| 2026-04-26 00:53 | 32.03588 | -86.34557 | 27300 ft | 389 kts | 192° |
| 2026-04-26 00:53 | 32.00910 | -86.34930 | 26857 ft | 385 kts | 192° |
| 2026-04-26 00:53 | 31.98255 | -86.35302 | 26413 ft | 382 kts | 192° |
| 2026-04-26 00:54 | 31.95624 | -86.35672 | 25963 ft | 380 kts | 192° |
| 2026-04-26 00:54 | 31.93004 | -86.36040 | 25514 ft | 378 kts | 192° |
| 2026-04-26 00:54 | 31.90397 | -86.36402 | 25043 ft | 377 kts | 191° |
| 2026-04-26 00:54 | 31.87800 | -86.36758 | 24582 ft | 375 kts | 191° |
| 2026-04-26 00:55 | 31.85208 | -86.37116 | 24101 ft | 374 kts | 191° |
| 2026-04-26 00:55 | 31.82656 | -86.37473 | 23631 ft | 374 kts | 191° |
| 2026-04-26 00:55 | 31.80076 | -86.37834 | 23102 ft | 373 kts | 191° |
| 2026-04-26 00:55 | 31.77500 | -86.38192 | 22622 ft | 371 kts | 191° |
| 2026-04-26 00:56 | 31.74942 | -86.38545 | 22157 ft | 369 kts | 191° |
| 2026-04-26 00:56 | 31.72392 | -86.38896 | 21678 ft | 367 kts | 190° |
| 2026-04-26 00:56 | 31.69859 | -86.39242 | 21235 ft | 366 kts | 190° |
| 2026-04-26 00:56 | 31.67339 | -86.39588 | 20782 ft | 364 kts | 190° |
| 2026-04-26 00:57 | 31.64825 | -86.39934 | 20331 ft | 363 kts | 190° |
| 2026-04-26 00:57 | 31.62322 | -86.40279 | 19883 ft | 362 kts | 190° |
| 2026-04-26 00:57 | 31.59822 | -86.40623 | 19438 ft | 361 kts | 190° |
| 2026-04-26 00:57 | 31.57330 | -86.40966 | 18995 ft | 360 kts | 190° |
| 2026-04-26 00:58 | 31.54845 | -86.41309 | 18551 ft | 360 kts | 190° |
| 2026-04-26 00:58 | 31.52364 | -86.41650 | 18109 ft | 359 kts | 190° |
| 2026-04-26 00:58 | 31.49877 | -86.41991 | 17641 ft | 358 kts | 190° |
| 2026-04-26 00:58 | 31.47423 | -86.42327 | 17339 ft | 352 kts | 190° |
| 2026-04-26 00:59 | 31.45025 | -86.42654 | 16942 ft | 350 kts | 190° |
| 2026-04-26 00:59 | 31.42613 | -86.42984 | 16528 ft | 348 kts | 190° |
| 2026-04-26 00:59 | 31.40212 | -86.43313 | 16128 ft | 347 kts | 190° |
| 2026-04-26 00:59 | 31.37817 | -86.43639 | 15726 ft | 346 kts | 190° |
| 2026-04-26 01:00 | 31.35439 | -86.43964 | 15315 ft | 340 kts | 190° |
| 2026-04-26 01:00 | 31.33129 | -86.44281 | 14925 ft | 328 kts | 191° |
| 2026-04-26 01:00 | 31.30902 | -86.44584 | 14546 ft | 317 kts | 191° |
| 2026-04-26 01:00 | 31.28720 | -86.44881 | 14184 ft | 315 kts | 191° |
| 2026-04-26 01:01 | 31.26536 | -86.45181 | 13814 ft | 317 kts | 191° |
| 2026-04-26 01:01 | 31.24347 | -86.45483 | 13408 ft | 318 kts | 191° |
| 2026-04-26 01:01 | 31.22148 | -86.45786 | 12996 ft | 318 kts | 191° |
| 2026-04-26 01:01 | 31.19955 | -86.46088 | 12607 ft | 317 kts | 191° |
| 2026-04-26 01:02 | 31.17764 | -86.46389 | 12214 ft | 317 kts | 191° |
| 2026-04-26 01:02 | 31.15576 | -86.46685 | 11826 ft | 316 kts | 190° |
| 2026-04-26 01:02 | 31.13393 | -86.46980 | 11423 ft | 316 kts | 190° |
| 2026-04-26 01:02 | 31.11205 | -86.47275 | 11030 ft | 316 kts | 190° |
| 2026-04-26 01:03 | 31.09025 | -86.47570 | 10638 ft | 315 kts | 190° |
| 2026-04-26 01:03 | 31.06843 | -86.47870 | 10216 ft | 316 kts | 190° |
| 2026-04-26 01:03 | 31.04691 | -86.48193 | 9891 ft | 312 kts | 194° |
| 2026-04-26 01:03 | 31.02646 | -86.48836 | 9748 ft | 297 kts | 200° |
| 2026-04-26 01:04 | 31.00703 | -86.49542 | 9209 ft | 290 kts | 201° |
| 2026-04-26 01:04 | 30.98793 | -86.50244 | 8764 ft | 281 kts | 201° |
| 2026-04-26 01:04 | 30.96994 | -86.50898 | 8631 ft | 260 kts | 201° |
| 2026-04-26 01:04 | 30.95316 | -86.51498 | 8414 ft | 246 kts | 201° |
| 2026-04-26 01:05 | 30.93695 | -86.52074 | 7983 ft | 242 kts | 201° |
| 2026-04-26 01:05 | 30.92086 | -86.52643 | 7605 ft | 241 kts | 201° |
| 2026-04-26 01:05 | 30.90476 | -86.53179 | 7308 ft | 242 kts | 193° |
| 2026-04-26 01:05 | 30.88799 | -86.53019 | 7017 ft | 246 kts | 160° |
| 2026-04-26 01:06 | 30.87412 | -86.51865 | 6717 ft | 249 kts | 128° |
| 2026-04-26 01:06 | 30.86701 | -86.50054 | 6393 ft | 248 kts | 101° |
| 2026-04-26 01:06 | 30.86401 | -86.48080 | 6066 ft | 248 kts | 97° |
| 2026-04-26 01:06 | 30.86167 | -86.46100 | 5762 ft | 246 kts | 96° |
| 2026-04-26 01:07 | 30.85740 | -86.44179 | 5453 ft | 245 kts | 120° |
| 2026-04-26 01:07 | 30.85052 | -86.43160 | 5254 ft | 242 kts | 141° |
| 2026-04-26 01:07 | 30.83056 | -86.42211 | 4846 ft | 233 kts | 184° |
| 2026-04-26 01:07 | 30.81574 | -86.42756 | 4551 ft | 223 kts | 217° |
| 2026-04-26 01:08 | 30.80231 | -86.43659 | 4198 ft | 226 kts | 198° |
| 2026-04-26 01:08 | 30.78676 | -86.43978 | 3890 ft | 227 kts | 192° |
| 2026-04-26 01:08 | 30.77632 | -86.44201 | 3696 ft | 225 kts | 194° |
| 2026-04-26 01:08 | 30.76103 | -86.44574 | 3412 ft | 223 kts | 194° |
| 2026-04-26 01:09 | 30.74591 | -86.44955 | 3142 ft | 222 kts | 194° |
| 2026-04-26 01:09 | 30.73100 | -86.45329 | 3013 ft | 215 kts | 194° |
| 2026-04-26 01:09 | 30.71702 | -86.45680 | 3007 ft | 204 kts | 194° |
| 2026-04-26 01:09 | 30.70329 | -86.46024 | 2980 ft | 199 kts | 194° |
| 2026-04-26 01:10 | 30.68978 | -86.46363 | 2980 ft | 198 kts | 194° |
| 2026-04-26 01:10 | 30.67677 | -86.46688 | 2996 ft | 182 kts | 194° |
| 2026-04-26 01:10 | 30.66494 | -86.46984 | 2963 ft | 167 kts | 194° |
| 2026-04-26 01:10 | 30.65389 | -86.47261 | 2844 ft | 159 kts | 195° |
| 2026-04-26 01:11 | 30.64323 | -86.47529 | 2689 ft | 155 kts | 195° |
| 2026-04-26 01:11 | 30.63273 | -86.47792 | 2511 ft | 153 kts | 194° |
| 2026-04-26 01:11 | 30.62234 | -86.48053 | 2329 ft | 153 kts | 195° |
| 2026-04-26 01:11 | 30.61205 | -86.48311 | 2149 ft | 151 kts | 194° |
| 2026-04-26 01:12 | 30.60189 | -86.48565 | 1954 ft | 148 kts | 194° |
| 2026-04-26 01:12 | 30.59186 | -86.48816 | 1775 ft | 146 kts | 194° |
| 2026-04-26 01:12 | 30.58200 | -86.49062 | 1600 ft | 146 kts | 194° |
| 2026-04-26 01:12 | 30.57203 | -86.49311 | 1415 ft | 147 kts | 194° |
| 2026-04-26 01:13 | 30.56130 | -86.49572 | 1316 ft | 166 kts | 193° |
| 2026-04-26 01:13 | 30.55047 | -86.49833 | 1245 ft | 152 kts | 193° |
| 2026-04-26 01:13 | 30.54028 | -86.50082 | 1080 ft | 147 kts | 195° |
| 2026-04-26 01:13 | 30.53041 | -86.50345 | 906 ft | 144 kts | 194° |
| 2026-04-26 01:14 | 30.52057 | -86.50605 | 665 ft | 147 kts | 193° |
| 2026-04-26 01:14 | 30.51062 | -86.50848 | 413 ft | 146 kts | 193° |
| 2026-04-26 01:14 | 30.50078 | -86.51099 | 193 ft | 144 kts | 193° |
| 2026-04-26 01:14 | 30.49113 | -86.51338 | 101 ft | 137 kts | 193° |
| 2026-04-26 01:15 | 30.48325 | -86.51533 | 97 ft | 91 kts | 192° |
| 2026-04-26 01:15 | 30.47878 | -86.51644 | 97 ft | 47 kts | 192° |
| 2026-04-26 01:15 | 30.47635 | -86.51712 | 97 ft | 28 kts | 205° |
| 2026-04-26 01:15 | 30.47620 | -86.51902 | 97 ft | 25 kts | 282° |
| 2026-04-26 01:16 | 30.47655 | -86.52108 | 98 ft | 27 kts | 282° |
| 2026-04-26 01:16 | 30.47693 | -86.52316 | 101 ft | 26 kts | 284° |
| 2026-04-26 01:16 | 30.47782 | -86.52503 | 99 ft | 27 kts | 298° |
| 2026-04-26 01:16 | 30.47876 | -86.52698 | 100 ft | 28 kts | 301° |
| 2026-04-26 01:17 | 30.47978 | -86.52906 | 98 ft | 30 kts | 298° |
| 2026-04-26 01:17 | 30.48090 | -86.53120 | 95 ft | 32 kts | 301° |
| 2026-04-26 01:17 | 30.48199 | -86.53342 | 97 ft | 32 kts | 299° |
| 2026-04-26 01:17 | 30.48305 | -86.53565 | 100 ft | 31 kts | 298° |
| 2026-04-26 01:18 | 30.48411 | -86.53785 | 99 ft | 32 kts | 298° |
| 2026-04-26 01:18 | 30.48524 | -86.54008 | 98 ft | 33 kts | 300° |
| 2026-04-26 01:18 | 30.48639 | -86.54239 | 99 ft | 33 kts | 300° |
| 2026-04-26 01:18 | 30.48754 | -86.54472 | 100 ft | 33 kts | 300° |
| 2026-04-26 01:19 | 30.48860 | -86.54691 | 102 ft | 29 kts | 298° |
| 2026-04-26 01:19 | 30.48958 | -86.54885 | 104 ft | 23 kts | 300° |
| 2026-04-26 01:19 | 30.49052 | -86.54948 | 100 ft | 14 kts | 25° |
| 2026-04-26 01:19 | 30.49141 | -86.54891 | 99 ft | 15 kts | 30° |
| 2026-04-26 01:20 | 30.49236 | -86.54843 | 95 ft | 15 kts | 11° |
| 2026-04-26 01:20 | 30.49311 | -86.54883 | 97 ft | 13 kts | 275° |
| 2026-04-26 01:20 | 30.49318 | -86.54995 | 95 ft | 15 kts | 279° |
| 2026-04-26 01:20 | 30.49356 | -86.55045 | 96 ft | 6 kts | 26° |
| 2026-04-26 01:21 | 30.49384 | -86.55009 | 97 ft | 6 kts | 47° |
| 2026-04-26 01:21 | 30.49393 | -86.54998 | 95 ft | 0 kts | 46° |